createdAt,value
2018-03-26T00:00:16.006Z,24.17
2018-03-26T00:02:43.604Z,24.80
2018-03-26T00:05:11.972Z,25.70
2018-03-26T00:07:40.328Z,27.20
2018-03-26T00:10:07.917Z,25.60
2018-03-26T00:12:36.260Z,26.00
2018-03-26T00:15:03.868Z,25.23
2018-03-26T00:17:31.492Z,25.53
2018-03-26T00:19:59.094Z,25.97
2018-03-26T00:22:26.679Z,26.40
2018-03-26T00:24:54.286Z,26.40
2018-03-26T00:27:22.640Z,25.63
2018-03-26T00:29:50.240Z,24.10
2018-03-26T00:32:18.642Z,24.30
2018-03-26T00:34:46.247Z,25.10
2018-03-26T00:37:13.848Z,25.07
2018-03-26T00:39:41.480Z,29.00
2018-03-26T00:42:09.105Z,23.27
2018-03-26T00:44:36.686Z,22.17
2018-03-26T00:47:04.311Z,24.80
2018-03-26T00:49:31.889Z,24.40
2018-03-26T00:51:59.498Z,24.00
2018-03-26T00:54:27.890Z,23.77
2018-03-26T00:56:55.608Z,22.20
2018-03-26T00:59:23.208Z,22.47
2018-03-26T01:01:51.565Z,21.43
2018-03-26T01:04:19.158Z,21.63
2018-03-26T01:06:46.764Z,19.20
2018-03-26T01:09:14.347Z,18.80
2018-03-26T01:11:42.084Z,17.53
2018-03-26T01:14:09.676Z,18.87
2018-03-26T01:16:37.282Z,20.23
2018-03-26T01:19:04.852Z,20.80
2018-03-26T01:21:32.484Z,20.57
2018-03-26T01:24:00.360Z,19.80
2018-03-26T01:26:27.957Z,22.67
2018-03-26T01:28:55.547Z,19.60
2018-03-26T01:31:23.168Z,20.10
2018-03-26T01:33:50.754Z,18.60
2018-03-26T01:36:18.369Z,19.40
2018-03-26T01:38:46.707Z,20.10
2018-03-26T01:41:14.339Z,19.43
2018-03-26T01:43:41.948Z,20.27
2018-03-26T01:46:10.331Z,20.67
2018-03-26T01:48:37.898Z,21.93
2018-03-26T01:51:06.274Z,23.30
2018-03-26T01:53:34.705Z,21.57
2018-03-26T01:56:02.304Z,23.10
2018-03-26T01:58:30.676Z,20.77
2018-03-26T02:00:58.272Z,22.63
2018-03-26T02:03:25.897Z,21.17
2018-03-26T02:05:54.268Z,21.60
2018-03-26T02:08:22.104Z,23.07
2018-03-26T02:10:49.692Z,23.73
2018-03-26T02:13:17.296Z,24.27
2018-03-26T02:15:44.864Z,23.50
2018-03-26T02:18:12.494Z,24.60
2018-03-26T02:20:40.089Z,23.90
2018-03-26T02:23:07.690Z,22.50
2018-03-26T02:25:36.226Z,22.27
2018-03-26T02:28:03.843Z,22.47
2018-03-26T02:30:31.421Z,23.93
2018-03-26T02:32:59.788Z,26.57
2018-03-26T02:35:27.372Z,25.17
2018-03-26T02:37:55.747Z,26.93
2018-03-26T02:40:23.362Z,25.33
2018-03-26T02:42:50.944Z,23.50
2018-03-26T02:45:20.329Z,24.80
2018-03-26T02:47:49.596Z,26.57
2018-03-26T02:50:18.829Z,28.50
2018-03-26T02:52:48.093Z,25.10
2018-03-26T02:55:17.315Z,25.17
2018-03-26T02:57:46.605Z,25.60
2018-03-26T03:00:15.858Z,26.60
2018-03-26T03:02:45.300Z,25.03
2018-03-26T03:05:14.497Z,24.53
2018-03-26T03:07:43.735Z,26.20
2018-03-26T03:10:13.112Z,26.50
2018-03-26T03:12:42.366Z,25.80
2018-03-26T03:15:11.614Z,25.67
2018-03-26T03:17:40.897Z,27.30
2018-03-26T03:20:10.300Z,27.27
2018-03-26T03:22:39.539Z,26.30
2018-03-26T03:25:08.799Z,26.57
2018-03-26T03:27:38.027Z,26.03
2018-03-26T03:30:07.302Z,25.50
2018-03-26T03:32:36.526Z,24.13
2018-03-26T03:35:05.791Z,25.80
2018-03-26T03:37:35.026Z,22.93
2018-03-26T03:40:04.308Z,23.33
2018-03-26T03:42:33.557Z,26.40
2018-03-26T03:45:02.822Z,21.23
2018-03-26T03:47:32.110Z,21.90
2018-03-26T03:50:01.378Z,23.90
2018-03-26T03:52:30.622Z,21.47
2018-03-26T03:54:59.897Z,20.87
2018-03-26T03:57:29.226Z,24.10
2018-03-26T03:59:58.510Z,22.77
2018-03-26T04:02:27.898Z,23.10
2018-03-26T04:04:57.145Z,23.60
2018-03-26T04:07:26.383Z,25.60
2018-03-26T04:09:55.660Z,26.63
2018-03-26T04:12:24.898Z,24.50
2018-03-26T04:14:54.599Z,23.83
2018-03-26T04:17:23.866Z,23.07
2018-03-26T04:19:53.184Z,25.40
2018-03-26T04:22:22.423Z,26.33
2018-03-26T04:24:51.678Z,25.73
2018-03-26T04:27:20.928Z,25.73
2018-03-26T04:29:50.184Z,26.17
2018-03-26T04:32:19.450Z,26.40
2018-03-26T04:34:48.704Z,23.00
2018-03-26T04:37:17.936Z,24.17
2018-03-26T04:39:47.187Z,25.47
2018-03-26T04:42:16.406Z,24.87
2018-03-26T04:44:45.687Z,25.00
2018-03-26T04:47:14.927Z,21.60
2018-03-26T04:49:44.163Z,22.10
2018-03-26T04:52:13.399Z,27.57
2018-03-26T04:54:42.633Z,23.43
2018-03-26T04:57:11.903Z,22.87
2018-03-26T04:59:41.199Z,24.87
2018-03-26T05:02:10.518Z,24.20
2018-03-26T05:04:39.871Z,22.60
2018-03-26T05:07:09.138Z,21.57
2018-03-26T05:09:38.392Z,24.33
2018-03-26T05:12:07.681Z,21.70
2018-03-26T05:14:36.954Z,25.80
2018-03-26T05:17:06.269Z,22.93
2018-03-26T05:19:35.501Z,25.40
2018-03-26T05:22:04.756Z,23.40
2018-03-26T05:24:34.017Z,26.37
2018-03-26T05:27:03.281Z,24.20
2018-03-26T05:29:32.510Z,22.47
2018-03-26T05:32:01.782Z,24.27
2018-03-26T05:34:31.011Z,25.83
2018-03-26T05:37:00.346Z,22.93
2018-03-26T05:39:29.556Z,22.53
2018-03-26T05:41:58.804Z,22.07
2018-03-26T05:44:30.346Z,23.30
2018-03-26T05:46:59.749Z,22.90
2018-03-26T05:49:28.982Z,22.90
2018-03-26T05:51:58.570Z,20.43
2018-03-26T05:54:28.088Z,21.77
2018-03-26T05:56:57.486Z,23.40
2018-03-26T05:59:26.718Z,20.53
2018-03-26T06:01:56.008Z,21.23
2018-03-26T06:04:25.236Z,21.97
2018-03-26T06:06:54.539Z,22.17
2018-03-26T06:09:23.788Z,24.80
2018-03-26T06:11:53.283Z,22.57
2018-03-26T06:14:22.475Z,21.57
2018-03-26T06:16:57.760Z,23.83
2018-03-26T06:19:28.795Z,25.03
2018-03-26T06:22:05.709Z,24.73
2018-03-26T06:24:34.987Z,26.50
2018-03-26T06:27:04.322Z,26.93
2018-03-26T06:29:33.643Z,26.30
2018-03-26T06:32:02.893Z,26.97
2018-03-26T06:34:32.261Z,28.73
2018-03-26T06:37:17.206Z,30.37
2018-03-26T06:39:46.439Z,31.03
2018-03-26T06:42:15.727Z,29.80
2018-03-26T06:44:47.981Z,30.80
2018-03-26T06:47:17.227Z,28.40
2018-03-26T06:49:46.461Z,26.93
2018-03-26T06:52:15.692Z,27.97
2018-03-26T06:54:44.935Z,27.20
2018-03-26T06:57:14.866Z,26.17
2018-03-26T06:59:44.116Z,26.73
2018-03-26T07:02:13.333Z,23.87
2018-03-26T07:04:42.585Z,24.00
2018-03-26T07:07:11.816Z,22.53
2018-03-26T07:09:41.056Z,22.70
2018-03-26T07:12:10.392Z,18.97
2018-03-26T07:14:39.627Z,21.27
2018-03-26T07:17:08.844Z,23.33
2018-03-26T07:19:38.184Z,26.80
2018-03-26T07:22:07.405Z,26.00
2018-03-26T07:24:36.778Z,25.43
2018-03-26T07:27:06.002Z,27.50
2018-03-26T07:29:35.251Z,27.00
2018-03-26T07:32:04.503Z,27.53
2018-03-26T07:34:33.749Z,22.90
2018-03-26T07:37:02.970Z,22.93
2018-03-26T07:39:32.229Z,24.70
2018-03-26T07:42:01.470Z,26.03
2018-03-26T07:44:30.720Z,25.77
2018-03-26T07:46:59.963Z,25.53
2018-03-26T07:49:29.235Z,22.93
2018-03-26T07:51:58.506Z,22.90
2018-03-26T07:54:27.782Z,22.83
2018-03-26T07:56:57.005Z,21.47
2018-03-26T07:59:26.317Z,21.97
2018-03-26T08:01:55.564Z,22.97
2018-03-26T08:04:24.825Z,21.20
2018-03-26T08:06:54.068Z,22.87
2018-03-26T08:09:23.330Z,26.83
2018-03-26T08:11:52.579Z,24.47
2018-03-26T08:14:21.843Z,23.70
2018-03-26T08:16:51.138Z,22.97
2018-03-26T08:19:20.466Z,23.70
2018-03-26T08:21:49.759Z,23.17
2018-03-26T08:24:19.038Z,21.33
2018-03-26T08:26:48.271Z,22.53
2018-03-26T08:29:17.710Z,22.40
2018-03-26T08:31:46.930Z,22.47
2018-03-26T08:34:16.168Z,22.63
2018-03-26T08:36:45.397Z,23.77
2018-03-26T08:39:14.639Z,22.23
2018-03-26T08:41:43.874Z,20.80
2018-03-26T08:44:13.102Z,22.20
2018-03-26T08:46:42.432Z,20.73
2018-03-26T08:49:11.762Z,22.63
2018-03-26T08:51:40.971Z,22.40
2018-03-26T08:54:10.175Z,23.13
2018-03-26T08:56:39.423Z,22.00
2018-03-26T08:59:08.654Z,23.40
2018-03-26T09:01:37.906Z,22.97
2018-03-26T09:04:07.126Z,22.17
2018-03-26T09:06:36.378Z,20.40
2018-03-26T09:09:05.079Z,22.20
2018-03-26T09:11:33.435Z,21.73
2018-03-26T09:14:01.000Z,22.70
2018-03-26T09:16:28.586Z,24.23
2018-03-26T09:18:56.164Z,23.00
2018-03-26T09:21:23.793Z,21.53
2018-03-26T09:23:51.383Z,23.40
2018-03-26T09:26:19.740Z,23.70
2018-03-26T09:28:47.304Z,25.37
2018-03-26T09:31:15.659Z,25.97
2018-03-26T09:33:43.265Z,28.60
2018-03-26T09:36:10.868Z,29.10
2018-03-26T09:38:38.469Z,28.73
2018-03-26T09:41:06.833Z,26.10
2018-03-26T09:43:34.411Z,29.33
2018-03-26T09:46:02.795Z,28.40
2018-03-26T09:48:31.286Z,29.57
2018-03-26T09:50:58.888Z,27.10
2018-03-26T09:53:26.535Z,28.73
2018-03-26T09:55:54.095Z,28.43
2018-03-26T09:58:21.675Z,28.03
2018-03-26T10:00:49.290Z,29.07
2018-03-26T10:03:16.853Z,30.40
2018-03-26T10:05:44.487Z,29.70
2018-03-26T10:08:12.101Z,29.50
2018-03-26T10:10:39.697Z,29.40
2018-03-26T10:13:07.288Z,30.77
2018-03-26T10:15:34.862Z,30.87
2018-03-26T10:18:02.513Z,29.30
2018-03-26T10:20:30.091Z,34.50
2018-03-26T10:22:57.693Z,31.97
2018-03-26T10:25:25.314Z,34.50
2018-03-26T10:27:54.570Z,31.50
2018-03-26T10:30:22.915Z,31.40
2018-03-26T10:32:50.492Z,30.63
2018-03-26T10:35:18.858Z,31.53
2018-03-26T10:37:46.450Z,34.80
2018-03-26T10:40:14.799Z,31.80
2018-03-26T10:42:42.405Z,32.07
2018-03-26T10:45:09.968Z,34.00
2018-03-26T10:47:37.566Z,33.77
2018-03-26T10:50:05.143Z,34.10
2018-03-26T10:52:32.766Z,32.80
2018-03-26T10:55:00.355Z,32.33
2018-03-26T10:57:27.960Z,35.03
2018-03-26T10:59:55.539Z,33.10
2018-03-26T11:02:23.133Z,31.63
2018-03-26T11:04:50.713Z,32.13
2018-03-26T11:07:18.330Z,32.00
2018-03-26T11:09:45.909Z,34.47
2018-03-26T11:12:13.534Z,30.27
2018-03-26T11:14:41.144Z,33.90
2018-03-26T11:17:08.752Z,30.70
2018-03-26T11:19:36.332Z,35.67
2018-03-26T11:22:03.938Z,35.20
2018-03-26T11:24:31.517Z,32.57
2018-03-26T11:26:59.869Z,34.30
2018-03-26T11:29:27.459Z,33.60
2018-03-26T11:31:55.796Z,35.07
2018-03-26T11:34:23.396Z,33.00
2018-03-26T11:36:51.724Z,35.07
2018-03-26T11:39:19.680Z,35.20
2018-03-26T11:41:47.293Z,33.77
2018-03-26T11:44:15.654Z,34.53
2018-03-26T11:46:43.249Z,34.87
2018-03-26T11:49:11.615Z,33.70
2018-03-26T11:51:40.026Z,32.70
2018-03-26T11:54:07.629Z,35.20
2018-03-26T11:56:35.264Z,33.73
2018-03-26T11:59:02.852Z,32.67
2018-03-26T12:01:30.498Z,35.23
2018-03-26T12:03:58.097Z,32.70
2018-03-26T12:06:26.444Z,36.10
2018-03-26T12:08:54.051Z,34.33
2018-03-26T12:11:22.382Z,32.63
2018-03-26T12:13:49.993Z,37.43
2018-03-26T12:16:17.568Z,34.97
2018-03-26T12:18:45.140Z,37.73
2018-03-26T12:21:12.732Z,30.27
2018-03-26T12:23:52.220Z,33.87
2018-03-26T12:26:19.807Z,34.10
2018-03-26T12:28:59.440Z,33.27
2018-03-26T12:31:27.036Z,34.57
2018-03-26T12:34:06.333Z,32.40
2018-03-26T12:36:33.896Z,29.93
2018-03-26T12:39:02.413Z,31.00
2018-03-26T12:41:30.749Z,29.63
2018-03-26T12:43:58.376Z,30.47
2018-03-26T12:46:46.749Z,32.07
2018-03-26T12:49:15.043Z,28.87
2018-03-26T12:51:54.570Z,29.23
2018-03-26T12:54:22.153Z,30.17
2018-03-26T12:56:55.506Z,27.10
2018-03-26T12:59:23.094Z,27.37
2018-03-26T13:02:02.335Z,30.53
2018-03-26T13:04:29.925Z,30.63
2018-03-26T13:06:57.527Z,29.77
2018-03-26T13:09:25.126Z,26.70
2018-03-26T13:11:53.497Z,26.20
2018-03-26T13:14:21.088Z,27.30
2018-03-26T13:16:49.423Z,25.00
2018-03-26T13:19:17.016Z,24.00
2018-03-26T13:21:45.361Z,26.07
2018-03-26T13:24:12.950Z,25.97
2018-03-26T13:26:40.605Z,26.77
2018-03-26T13:29:08.182Z,27.77
2018-03-26T13:31:36.564Z,27.80
2018-03-26T13:34:04.124Z,29.50
2018-03-26T13:36:32.528Z,28.87
2018-03-26T13:39:00.098Z,29.00
2018-03-26T13:41:27.702Z,28.30
2018-03-26T13:43:55.294Z,31.47
2018-03-26T13:46:22.908Z,32.10
2018-03-26T13:48:50.473Z,30.63
2018-03-26T13:51:18.067Z,30.13
2018-03-26T13:53:45.624Z,28.30
2018-03-26T13:56:13.975Z,32.80
2018-03-26T13:58:41.556Z,30.07
2018-03-26T14:01:09.217Z,30.00
2018-03-26T14:03:37.635Z,31.97
2018-03-26T14:06:05.230Z,31.97
2018-03-26T14:08:44.634Z,29.40
2018-03-26T14:11:24.194Z,28.77
2018-03-26T14:14:03.589Z,29.47
2018-03-26T14:16:43.124Z,29.97
2018-03-26T14:19:10.696Z,31.13
2018-03-26T14:21:38.322Z,30.93
2018-03-26T14:24:09.172Z,30.80
2018-03-26T14:26:37.502Z,33.40
2018-03-26T14:29:05.087Z,33.77
2018-03-26T14:31:32.684Z,32.47
2018-03-26T14:34:00.280Z,32.13
2018-03-26T14:36:27.886Z,33.97
2018-03-26T14:38:55.449Z,32.63
2018-03-26T14:41:23.037Z,30.97
2018-03-26T14:43:50.604Z,32.87
2018-03-26T14:46:18.208Z,31.60
2018-03-26T14:48:45.803Z,31.07
2018-03-26T14:51:14.153Z,32.10
2018-03-26T14:53:41.721Z,31.40
2018-03-26T14:56:09.324Z,31.20
2018-03-26T14:58:36.880Z,33.33
2018-03-26T15:01:04.463Z,31.63
2018-03-26T15:03:32.035Z,31.83
2018-03-26T15:05:59.592Z,31.27
2018-03-26T15:08:27.176Z,31.17
2018-03-26T15:10:54.779Z,32.80
2018-03-26T15:13:23.155Z,30.83
2018-03-26T15:15:51.497Z,31.63
2018-03-26T15:18:19.082Z,30.50
2018-03-26T15:20:47.415Z,30.67
2018-03-26T15:23:15.062Z,31.93
2018-03-26T15:25:42.634Z,33.07
2018-03-26T15:28:10.236Z,30.20
2018-03-26T15:30:38.573Z,30.67
2018-03-26T15:33:06.190Z,30.63
2018-03-26T15:35:33.758Z,29.80
2018-03-26T15:38:01.546Z,29.23
2018-03-26T15:40:29.273Z,31.37
2018-03-26T15:42:56.911Z,28.13
2018-03-26T15:45:24.501Z,29.27
2018-03-26T15:47:52.092Z,29.70
2018-03-26T15:50:19.172Z,29.63
2018-03-26T15:52:46.772Z,30.93
2018-03-26T15:55:15.205Z,29.10
2018-03-26T15:57:42.789Z,30.73
2018-03-26T16:00:11.148Z,29.83
2018-03-26T16:02:44.484Z,28.90
2018-03-26T16:05:12.081Z,27.83
2018-03-26T16:07:39.719Z,29.63
2018-03-26T16:10:07.336Z,28.40
2018-03-26T16:12:34.950Z,28.30
2018-03-26T16:15:02.527Z,28.87
2018-03-26T16:17:30.141Z,28.30
2018-03-26T16:19:58.504Z,29.73
2018-03-26T16:22:26.089Z,29.90
2018-03-26T16:24:53.679Z,29.23
2018-03-26T16:27:21.264Z,26.97
2018-03-26T16:29:48.841Z,29.40
2018-03-26T16:32:17.170Z,29.40
2018-03-26T16:34:44.759Z,30.30
2018-03-26T16:37:13.108Z,29.67
2018-03-26T16:39:40.713Z,29.67
2018-03-26T16:45:12.864Z,26.17
2018-03-26T16:47:40.436Z,27.93
2018-03-26T16:50:08.032Z,30.40
2018-03-26T16:52:35.585Z,30.70
2018-03-26T16:55:03.939Z,32.23
2018-03-26T16:57:32.274Z,29.47
2018-03-26T16:59:59.862Z,31.50
2018-03-26T17:02:27.459Z,30.90
2018-03-26T17:04:55.076Z,27.50
2018-03-26T17:07:22.645Z,29.17
2018-03-26T17:09:50.275Z,28.70
2018-03-26T17:12:17.885Z,30.40
2018-03-26T17:14:45.482Z,28.43
2018-03-26T17:17:13.048Z,29.20
2018-03-26T17:19:41.401Z,30.20
2018-03-26T17:22:09.035Z,27.83
2018-03-26T17:24:36.639Z,29.10
2018-03-26T17:27:04.207Z,28.17
2018-03-26T17:29:31.818Z,29.40
2018-03-26T17:31:59.405Z,26.10
2018-03-26T17:34:26.988Z,26.73
2018-03-26T17:36:55.348Z,27.60
2018-03-26T17:39:22.924Z,29.03
2018-03-26T17:41:50.539Z,26.77
2018-03-26T17:44:18.156Z,26.73
2018-03-26T17:46:46.516Z,26.90
2018-03-26T17:49:14.180Z,26.33
2018-03-26T17:51:41.765Z,27.67
2018-03-26T17:54:09.361Z,29.00
2018-03-26T17:56:36.976Z,26.40
2018-03-26T17:59:05.345Z,27.07
2018-03-26T18:01:33.709Z,27.17
2018-03-26T18:04:01.260Z,28.60
2018-03-26T18:06:28.861Z,28.47
2018-03-26T18:08:56.454Z,27.10
2018-03-26T18:11:24.092Z,29.20
2018-03-26T18:13:51.683Z,28.50
2018-03-26T18:16:19.293Z,28.13
2018-03-26T18:18:46.864Z,29.00
2018-03-26T18:21:16.272Z,29.07
2018-03-26T18:23:43.869Z,29.87
2018-03-26T18:26:11.473Z,28.60
2018-03-26T18:28:39.808Z,27.10
2018-03-26T18:31:07.428Z,27.87
2018-03-26T18:33:35.076Z,29.90
2018-03-26T18:36:03.434Z,28.00
2018-03-26T18:38:31.031Z,28.50
2018-03-26T18:40:58.613Z,28.23
2018-03-26T18:43:26.195Z,28.97
2018-03-26T18:45:53.788Z,26.87
2018-03-26T18:48:22.208Z,27.53
2018-03-26T18:50:49.796Z,29.57
2018-03-26T18:53:17.374Z,28.17
2018-03-26T18:55:44.987Z,30.20
2018-03-26T18:58:12.593Z,30.00
2018-03-26T19:00:40.330Z,28.97
2018-03-26T19:03:07.920Z,27.50
2018-03-26T19:05:36.094Z,28.57
2018-03-26T19:08:03.691Z,28.30
2018-03-26T19:10:31.257Z,29.00
2018-03-26T19:12:58.845Z,36.27
2018-03-26T19:15:26.422Z,35.17
2018-03-26T19:17:54.020Z,28.93
2018-03-26T19:20:21.606Z,29.20
2018-03-26T19:22:49.243Z,29.20
2018-03-26T19:25:16.842Z,46.30
2018-03-26T19:27:44.449Z,42.70
2018-03-26T19:30:12.071Z,37.13
2018-03-26T19:32:39.706Z,37.80
2018-03-26T19:35:07.731Z,37.97
2018-03-26T19:37:36.139Z,38.83
2018-03-26T19:40:04.493Z,36.47
2018-03-26T19:42:32.846Z,34.63
2018-03-26T19:45:00.402Z,33.67
2018-03-26T19:47:27.994Z,31.10
2018-03-26T19:49:55.574Z,33.03
2018-03-26T19:52:23.152Z,30.63
2018-03-26T19:54:50.716Z,34.17
2018-03-26T19:57:18.301Z,32.90
2018-03-26T19:59:45.859Z,29.00
2018-03-26T20:02:13.483Z,29.37
2018-03-26T20:04:41.493Z,29.00
2018-03-26T20:07:09.155Z,29.23
2018-03-26T20:09:36.732Z,30.20
2018-03-26T20:12:04.318Z,29.23
2018-03-26T20:14:32.734Z,27.60
2018-03-26T20:17:00.313Z,32.33
2018-03-26T20:19:27.914Z,27.83
2018-03-26T20:21:56.302Z,31.00
2018-03-26T20:24:23.869Z,28.67
2018-03-26T20:26:51.509Z,28.30
2018-03-26T20:29:19.872Z,29.60
2018-03-26T20:31:47.466Z,28.53
2018-03-26T20:34:15.082Z,29.90
2018-03-26T20:36:42.811Z,28.87
2018-03-26T20:39:10.540Z,28.73
2018-03-26T20:41:39.204Z,28.90
2018-03-26T20:44:06.815Z,29.10
2018-03-26T20:46:34.864Z,28.67
2018-03-26T20:49:03.251Z,28.73
2018-03-26T20:51:33.776Z,29.03
2018-03-26T20:54:02.193Z,28.80
2018-03-26T20:56:29.857Z,29.30
2018-03-26T20:58:57.472Z,28.20
2018-03-26T21:01:25.814Z,27.90
2018-03-26T21:03:53.453Z,26.83
2018-03-26T21:06:21.013Z,28.87
2018-03-26T21:08:48.631Z,30.67
2018-03-26T21:11:16.974Z,27.60
2018-03-26T21:13:44.586Z,33.17
2018-03-26T21:16:12.160Z,31.70
2018-03-26T21:18:39.736Z,30.60
2018-03-26T21:21:07.352Z,31.07
2018-03-26T21:23:35.702Z,31.73
2018-03-26T21:26:03.320Z,30.13
2018-03-26T21:28:30.898Z,31.20
2018-03-26T21:30:58.514Z,31.77
2018-03-26T21:33:26.880Z,27.87
2018-03-26T21:35:55.297Z,32.53
2018-03-26T21:38:22.890Z,31.40
2018-03-26T21:40:50.499Z,29.47
2018-03-26T21:43:18.869Z,29.20
2018-03-26T21:45:47.253Z,30.67
2018-03-26T21:48:15.676Z,32.40
2018-03-26T21:50:43.334Z,30.67
2018-03-26T21:53:10.969Z,29.63
2018-03-26T21:55:39.438Z,30.80
2018-03-26T21:58:06.999Z,31.90
2018-03-26T22:00:35.358Z,32.20
2018-03-26T22:03:03.854Z,30.07
2018-03-26T22:05:32.250Z,32.00
2018-03-26T22:07:59.820Z,35.03
2018-03-26T22:10:27.412Z,33.67
2018-03-26T22:12:54.974Z,31.27
2018-03-26T22:15:22.593Z,31.80
2018-03-26T22:17:50.165Z,31.70
2018-03-26T22:20:17.763Z,31.50
2018-03-26T22:22:46.106Z,33.03
2018-03-26T22:25:13.753Z,31.80
2018-03-26T22:27:41.383Z,34.07
2018-03-26T22:30:09.000Z,32.60
2018-03-26T22:32:36.608Z,31.93
2018-03-26T22:35:04.884Z,32.33
2018-03-26T22:37:32.497Z,32.20
2018-03-26T22:40:00.110Z,32.83
2018-03-26T22:42:27.733Z,31.80
2018-03-26T22:44:55.338Z,36.10
2018-03-26T22:47:22.997Z,34.10
2018-03-26T22:49:50.551Z,36.73
2018-03-26T22:52:18.142Z,34.47
2018-03-26T22:54:45.700Z,34.17
2018-03-26T22:57:13.296Z,35.03
2018-03-26T22:59:41.643Z,33.00
2018-03-26T23:02:09.234Z,38.20
2018-03-26T23:04:37.634Z,35.90
2018-03-26T23:07:05.985Z,35.80
2018-03-26T23:09:33.569Z,33.07
2018-03-26T23:12:01.954Z,35.97
2018-03-26T23:14:30.287Z,36.20
2018-03-26T23:16:57.909Z,33.17
2018-03-26T23:19:25.517Z,35.17
2018-03-26T23:21:53.130Z,34.60
2018-03-26T23:24:20.712Z,35.70
2018-03-26T23:26:48.303Z,34.20
2018-03-26T23:29:15.876Z,38.77
2018-03-26T23:31:44.234Z,39.30
2018-03-26T23:34:11.794Z,38.40
2018-03-26T23:36:39.387Z,34.77
2018-03-26T23:39:07.732Z,37.43
2018-03-26T23:41:35.317Z,36.80
2018-03-26T23:44:03.696Z,36.83
2018-03-26T23:46:32.062Z,35.90
2018-03-26T23:48:59.650Z,38.80
2018-03-26T23:51:27.219Z,33.93
2018-03-26T23:53:54.823Z,33.53
2018-03-26T23:56:22.380Z,36.03
2018-03-26T23:58:49.955Z,36.70
